Time;durP1;ratioP1;P1;durP2;ratioP2;P2;SDS_P1;SDS_P2;PMS_P1;PMS_P2;Temp;Humidity;BMP_temperature;BMP_pressure;BME280_temperature;BME280_humidity;BME280_pressure;Samples;Min_cycle;Max_cycle;Signal;HPM_P1;HPM_P2
2023/08/03 00:00:04;;;;;;;7.75;5.80;;;;;;;21.07;73.76;99792.17;1723148;80;21209;-55
2023/08/03 00:05:38;;;;;;;7.37;6.03;;;;;;;21.02;73.78;99787.37;1750356;79;21242;-55
2023/08/03 00:11:15;;;;;;;6.20;5.15;;;;;;;20.99;73.85;99793.47;1753985;80;21389;-55
2023/08/03 00:16:50;;;;;;;7.20;5.10;;;;;;;21.03;74.00;99800.72;1758994;81;21374;-54
2023/08/03 00:25:02;;;;;;;7.87;6.28;;;;;;;21.04;74.07;99810.20;1748265;80;21378;-54
2023/08/03 00:30:34;;;;;;;9.50;5.62;;;;;;;21.07;74.17;99812.50;1746577;79;21343;-54
2023/08/03 00:33:41;;;;;;;7.05;5.83;;;;;;;21.09;74.18;99806.11;1721755;79;21395;-54
2023/08/03 00:39:17;;;;;;;8.88;5.55;;;;;;;21.08;74.23;99811.39;1759617;80;21857;-54
2023/08/03 00:42:23;;;;;;;6.37;5.78;;;;;;;21.07;74.21;99816.68;1721197;80;21284;-56
2023/08/03 00:47:57;;;;;;;6.87;5.95;;;;;;;21.11;74.33;99830.90;1740817;79;21255;-56
2023/08/03 00:51:03;;;;;;;10.68;6.40;;;;;;;21.11;74.37;99849.84;1748400;79;21405;-55
2023/08/03 00:56:38;;;;;;;11.33;6.55;;;;;;;21.12;74.44;99835.39;1699477;80;21824;-55
2023/08/03 01:02:14;;;;;;;8.88;6.40;;;;;;;21.05;74.40;99831.94;1697356;82;21866;-55
2023/08/03 01:07:48;;;;;;;9.73;6.53;;;;;;;20.96;74.38;99816.25;1731594;80;21422;-55
2023/08/03 01:13:26;;;;;;;10.13;6.17;;;;;;;20.86;74.36;99829.12;1739401;79;21450;-55
2023/08/03 01:19:01;;;;;;;8.80;6.45;;;;;;;20.83;74.71;99841.61;1718292;81;21240;-54
2023/08/03 01:24:38;;;;;;;8.28;6.45;;;;;;;20.80;74.97;99840.73;1743859;80;21231;-53
2023/08/03 01:32:42;;;;;;;8.60;6.58;;;;;;;20.76;75.23;99847.36;1732291;79;21364;-52
2023/08/03 01:38:19;;;;;;;7.62;6.70;;;;;;;20.76;75.41;99852.06;1705608;81;21431;-53
2023/08/03 01:44:28;;;;;;;9.65;6.12;;;;;;;20.72;75.35;99832.25;1753964;78;21373;-53
2023/08/03 01:52:32;;;;;;;8.33;6.53;;;;;;;20.62;75.36;99847.95;1744459;77;22264;-53
2023/08/03 01:55:39;;;;;;;7.10;5.70;;;;;;;20.62;75.47;99862.71;1711512;81;21438;-51
2023/08/03 02:01:15;;;;;;;7.87;6.50;;;;;;;20.60;75.73;99886.30;1748961;79;21290;-53
2023/08/03 02:06:57;;;;;;;6.90;5.87;;;;;;;20.58;75.79;99862.91;1744788;80;21366;-54
2023/08/03 02:12:32;;;;;;;7.83;6.00;;;;;;;20.52;75.61;99853.34;1741985;79;21366;-55
2023/08/03 02:18:08;;;;;;;11.53;6.35;;;;;;;20.46;75.80;99851.58;1736255;80;21880;-54
2023/08/03 02:23:44;;;;;;;8.20;6.30;;;;;;;20.50;76.13;99870.85;1739172;80;21732;-55
2023/08/03 02:29:21;;;;;;;7.17;6.42;;;;;;;20.52;76.34;99875.05;1738061;79;22096;-54
2023/08/03 02:34:55;;;;;;;7.42;6.28;;;;;;;20.55;76.53;99878.71;1747684;81;21377;-54
2023/08/03 02:38:00;;;;;;;8.15;6.37;;;;;;;20.57;76.51;99885.41;1742905;80;21843;-54
2023/08/03 02:41:00;;;;;;;7.70;6.33;;;;;;;20.60;76.59;99883.52;1757404;80;22410;-54
2023/08/03 02:44:07;;;;;;;7.37;6.37;;;;;;;20.61;76.70;99879.09;1725661;81;21220;-53
2023/08/03 02:49:41;;;;;;;7.95;6.08;;;;;;;20.66;76.90;99895.05;1747907;80;21227;-53
2023/08/03 02:55:17;;;;;;;10.38;6.42;;;;;;;20.66;77.04;99902.82;1724250;80;21462;-53
2023/08/03 03:00:52;;;;;;;7.50;6.53;;;;;;;20.65;77.05;99902.53;1748798;80;22012;-53
2023/08/03 03:06:29;;;;;;;8.48;7.00;;;;;;;20.60;76.93;99901.59;1743775;79;21981;-53
2023/08/03 03:09:36;;;;;;;8.93;6.95;;;;;;;20.59;77.03;99905.48;1750894;80;21374;-53
2023/08/03 03:15:12;;;;;;;11.88;6.33;;;;;;;20.58;77.26;99903.81;1737124;77;21466;-54
2023/08/03 03:18:18;;;;;;;9.25;6.85;;;;;;;20.57;77.25;99896.00;1764561;79;21253;-54
2023/08/03 03:23:54;;;;;;;10.30;6.47;;;;;;;20.54;77.20;99902.07;1730053;80;21210;-55
2023/08/03 03:31:58;;;;;;;15.13;6.78;;;;;;;20.51;77.34;99901.72;1770751;78;21425;-55
2023/08/03 03:35:04;;;;;;;9.65;6.40;;;;;;;20.52;77.44;99908.96;1778998;79;21872;-54
2023/08/03 03:40:41;;;;;;;8.20;7.05;;;;;;;20.57;77.71;99908.52;1774702;78;21895;-55
2023/08/03 03:46:17;;;;;;;7.40;6.60;;;;;;;20.64;77.83;99913.92;1756798;79;21225;-55
2023/08/03 03:51:53;;;;;;;10.13;7.05;;;;;;;20.71;77.92;99920.98;1760873;79;21517;-54
2023/08/03 03:54:59;;;;;;;8.40;7.45;;;;;;;20.72;77.97;99927.41;1762004;79;21344;-54
2023/08/03 04:03:03;;;;;;;17.45;8.23;;;;;;;20.73;78.12;99944.38;1758109;79;21276;-55
2023/08/03 04:06:09;;;;;;;7.92;7.12;;;;;;;20.73;78.19;99936.89;1725863;81;21373;-55
2023/08/03 04:11:42;;;;;;;10.80;7.90;;;;;;;20.75;78.32;99950.55;1768181;77;21477;-55
2023/08/03 04:17:17;;;;;;;10.05;9.05;;;;;;;20.79;78.43;99954.50;1756130;77;21404;-55
2023/08/03 04:22:53;;;;;;;8.40;7.53;;;;;;;20.86;78.56;99949.63;1752681;77;21876;-55
2023/08/03 04:28:31;;;;;;;8.88;7.97;;;;;;;20.94;78.60;99949.20;1734218;79;21433;-55
2023/08/03 04:34:05;;;;;;;9.40;8.45;;;;;;;21.02;78.70;99941.85;1730421;80;21931;-55
2023/08/03 04:39:43;;;;;;;8.98;7.85;;;;;;;21.13;78.84;99943.70;1755689;79;21732;-55
2023/08/03 04:45:19;;;;;;;9.48;7.70;;;;;;;21.27;79.01;99946.41;1762274;78;21323;-56
2023/08/03 04:50:53;;;;;;;9.08;7.62;;;;;;;21.42;79.10;99952.19;1764599;78;21914;-56
2023/08/03 04:56:30;;;;;;;20.25;11.65;;;;;;;21.57;79.24;99951.56;1732723;80;21189;-57
2023/08/03 05:02:05;;;;;;;9.60;7.05;;;;;;;21.71;79.29;99967.66;1756905;79;21492;-59
2023/08/03 05:05:10;;;;;;;7.03;6.20;;;;;;;21.76;79.39;99966.37;1724515;80;21234;-58
2023/08/03 05:10:43;;;;;;;13.53;8.58;;;;;;;21.92;79.47;99963.22;1753494;80;21170;-59
2023/08/03 05:13:50;;;;;;;5.92;5.15;;;;;;;21.97;79.51;99966.92;1754252;78;21356;-57
2023/08/03 05:19:27;;;;;;;5.90;5.15;;;;;;;22.10;79.45;99960.93;1748145;79;23068;-63
2023/08/03 05:22:32;;;;;;;5.10;4.60;;;;;;;22.15;79.46;99963.78;1771398;79;21215;-62
2023/08/03 05:28:07;;;;;;;5.90;5.30;;;;;;;22.27;79.41;99965.04;1775864;79;21279;-61
2023/08/03 05:33:44;;;;;;;5.35;4.83;;;;;;;22.38;79.33;99968.77;1758432;79;21224;-62
2023/08/03 05:39:18;;;;;;;5.40;4.70;;;;;;;22.51;79.37;99978.13;1754972;79;21305;-60
2023/08/03 05:42:24;;;;;;;5.10;4.35;;;;;;;22.55;79.35;99985.73;1762749;79;21709;-61
2023/08/03 05:47:58;;;;;;;5.03;3.90;;;;;;;22.71;79.43;99981.14;1759028;78;21764;-62
2023/08/03 05:53:34;;;;;;;4.20;3.80;;;;;;;22.83;79.45;99984.63;1779701;77;21228;-62
2023/08/03 06:02:42;;;;;;;5.53;3.77;;;;;;;23.00;79.30;99979.75;1746549;78;21788;-60
2023/08/03 06:05:58;;;;;;;5.45;4.22;;;;;;;23.05;79.21;99979.80;1779178;77;21227;-59
2023/08/03 06:09:06;;;;;;;4.33;3.55;;;;;;;23.10;79.25;99991.83;1702638;80;21764;-63
2023/08/03 06:12:12;;;;;;;4.10;3.70;;;;;;;23.16;79.16;99987.14;1709940;79;21204;-62
2023/08/03 06:17:48;;;;;;;6.65;4.50;;;;;;;23.28;79.17;99992.01;1740094;80;21224;-62
2023/08/03 06:23:31;;;;;;;4.55;4.08;;;;;;;23.38;79.17;99992.09;1736270;80;21430;-62
2023/08/03 06:26:40;;;;;;;5.62;3.55;;;;;;;23.42;79.10;99988.48;1781508;78;21293;-60
2023/08/03 06:29:47;;;;;;;6.95;4.08;;;;;;;23.50;79.00;99995.52;1764488;79;21270;-61
2023/08/03 06:32:54;;;;;;;5.80;3.70;;;;;;;23.54;78.87;100000.87;1789111;78;21917;-60
2023/08/03 06:36:02;;;;;;;4.83;3.83;;;;;;;23.56;78.83;99996.68;1768141;78;22101;-60
2023/08/03 06:39:08;;;;;;;4.47;3.85;;;;;;;23.63;78.80;100006.80;1747315;78;21832;-61
2023/08/03 06:42:14;;;;;;;4.20;3.50;;;;;;;23.67;78.79;99995.36;1777140;78;21458;-62
2023/08/03 06:47:49;;;;;;;5.47;3.90;;;;;;;23.82;78.81;100006.06;1772587;78;21191;-63
2023/08/03 06:53:24;;;;;;;4.40;3.70;;;;;;;23.96;78.76;100007.25;1770654;78;21246;-59
2023/08/03 06:56:32;;;;;;;4.67;4.05;;;;;;;24.01;78.66;100007.86;1774432;78;21812;-63
2023/08/03 06:59:39;;;;;;;4.87;4.05;;;;;;;24.06;78.57;100015.73;1786389;79;21312;-62
2023/08/03 07:02:50;;;;;;;5.62;4.60;;;;;;;24.10;78.42;100016.86;1767191;77;21373;-64
2023/08/03 07:05:19;;;;;;;5.25;4.67;;;;;;;24.16;78.31;100017.73;1783132;78;21350;-64
2023/08/03 07:08:27;;;;;;;5.37;4.87;;;;;;;24.20;78.27;100005.72;1794170;78;21184;-62
2023/08/03 07:11:33;;;;;;;6.60;4.95;;;;;;;24.28;78.26;100005.74;1771697;77;22006;-63
2023/08/03 07:17:10;;;;;;;8.93;6.85;;;;;;;24.42;78.06;100011.95;1784037;78;21232;-64
2023/08/03 07:22:48;;;;;;;6.75;4.50;;;;;;;24.53;77.88;100010.87;1784716;77;21201;-60
2023/08/03 07:28:25;;;;;;;6.03;5.33;;;;;;;24.62;77.69;100008.38;1731462;79;21294;-61
2023/08/03 07:31:31;;;;;;;7.22;5.42;;;;;;;24.64;77.66;100009.77;1763339;78;21815;-63
2023/08/03 07:34:37;;;;;;;6.70;5.40;;;;;;;24.68;77.56;100003.95;1754988;79;21428;-57
2023/08/03 07:37:44;;;;;;;5.95;5.22;;;;;;;24.71;77.38;100004.80;1774781;79;21374;-56
2023/08/03 07:40:53;;;;;;;8.23;5.58;;;;;;;24.71;77.31;100018.80;1799391;78;21989;-56
2023/08/03 07:43:58;;;;;;;9.88;5.67;;;;;;;24.73;77.31;100023.57;1789497;77;21230;-55
2023/08/03 07:47:04;;;;;;;8.80;5.72;;;;;;;24.78;77.35;100019.35;1778904;77;21211;-57
2023/08/03 07:50:12;;;;;;;5.78;4.80;;;;;;;24.86;77.34;100023.59;1778300;77;21210;-56
2023/08/03 07:53:18;;;;;;;9.28;5.53;;;;;;;24.95;77.26;100026.97;1780524;79;21272;-55
2023/08/03 07:56:29;;;;;;;10.50;7.03;;;;;;;25.13;77.22;100021.93;1783269;77;21759;-56
2023/08/03 08:04:33;;;;;;;8.35;5.90;;;;;;;25.47;76.76;100023.06;1783922;78;21199;-56
2023/08/03 08:07:39;;;;;;;8.23;5.55;;;;;;;25.60;76.68;100018.28;1787660;78;21194;-55
2023/08/03 08:13:16;;;;;;;5.55;4.97;;;;;;;26.01;76.57;100027.77;1805381;79;22272;-56
2023/08/03 08:18:50;;;;;;;6.53;5.05;;;;;;;26.14;75.96;100026.32;1793143;77;21196;-56
2023/08/03 08:24:25;;;;;;;6.12;4.85;;;;;;;26.17;75.55;100025.74;1791078;77;21231;-56
2023/08/03 08:30:00;;;;;;;5.47;4.58;;;;;;;26.09;75.31;100022.12;1790970;78;21762;-56
2023/08/03 08:33:06;;;;;;;5.53;5.03;;;;;;;26.09;75.20;100029.14;1789474;77;21291;-56
2023/08/03 08:38:38;;;;;;;6.25;4.83;;;;;;;25.93;74.98;100026.91;1782603;78;21341;-58
2023/08/03 08:41:47;;;;;;;5.87;5.10;;;;;;;25.94;74.98;100037.00;1776770;79;21317;-57
2023/08/03 08:47:22;;;;;;;8.50;5.85;;;;;;;26.02;74.95;100023.00;1792056;78;21597;-58
2023/08/03 08:55:35;;;;;;;8.05;6.20;;;;;;;26.21;74.70;100034.70;1755888;78;21201;-57
2023/08/03 08:58:27;;;;;;;6.62;5.00;;;;;;;26.27;74.53;100027.12;1726203;81;21268;-58
2023/08/03 09:04:03;;;;;;;6.62;4.85;;;;;;;26.45;74.42;100027.86;1706381;79;21240;-55
2023/08/03 09:09:43;;;;;;;8.33;4.75;;;;;;;26.78;74.28;100022.95;1762853;78;21782;-57
2023/08/03 09:12:50;;;;;;;5.20;4.70;;;;;;;26.91;74.09;100027.09;1750353;79;21222;-57
2023/08/03 09:15:57;;;;;;;4.95;4.42;;;;;;;27.00;73.78;100028.98;1748602;79;21285;-56
2023/08/03 09:19:02;;;;;;;5.40;4.65;;;;;;;26.99;73.41;100032.09;1696216;79;21261;-56
2023/08/03 09:22:08;;;;;;;5.33;4.83;;;;;;;27.09;73.35;100030.03;1759602;79;21237;-57
2023/08/03 09:25:17;;;;;;;5.50;4.72;;;;;;;27.19;73.13;100024.34;1761579;77;21424;-56
2023/08/03 09:31:00;;;;;;;5.55;4.70;;;;;;;27.46;72.83;100028.89;1758236;78;21920;-55
2023/08/03 09:34:06;;;;;;;5.10;4.60;;;;;;;27.58;72.71;100030.77;1694160;79;21243;-57
2023/08/03 09:37:14;;;;;;;6.15;4.60;;;;;;;27.70;72.43;100038.23;1769316;77;21272;-56
2023/08/03 09:40:23;;;;;;;5.55;4.45;;;;;;;27.79;72.16;100042.66;1741778;78;22450;-58
2023/08/03 09:43:31;;;;;;;12.47;6.65;;;;;;;27.76;71.63;100039.89;1722017;80;21895;-58
2023/08/03 09:49:07;;;;;;;4.12;3.72;;;;;;;27.75;71.29;100036.78;1777848;78;21347;-57
2023/08/03 09:52:15;;;;;;;6.65;3.55;;;;;;;27.80;71.07;100033.92;1797179;78;21401;-56
2023/08/03 09:55:32;;;;;;;5.28;3.90;;;;;;;27.84;70.91;100036.98;1792852;78;21333;-55
2023/08/03 09:58:53;;;;;;;4.85;3.92;;;;;;;27.78;70.60;100041.81;1776208;78;22060;-55
2023/08/03 10:01:59;;;;;;;4.25;3.80;;;;;;;27.75;70.48;100041.00;1776271;78;21919;-55
2023/08/03 10:05:07;;;;;;;4.08;3.67;;;;;;;27.79;70.33;100041.25;1775328;78;21285;-54
2023/08/03 10:08:30;;;;;;;4.25;3.85;;;;;;;27.86;70.28;100039.77;1757154;78;21363;-55
2023/08/03 10:14:09;;;;;;;3.92;3.50;;;;;;;27.85;69.79;100043.72;1777349;78;21294;-56
2023/08/03 10:17:16;;;;;;;3.83;3.42;;;;;;;27.88;69.65;100042.87;1742970;79;21231;-58
2023/08/03 10:20:23;;;;;;;4.17;3.60;;;;;;;27.89;69.47;100053.01;1764618;80;21761;-56
2023/08/03 10:23:28;;;;;;;3.75;3.22;;;;;;;28.01;69.37;100049.20;1776467;78;21232;-56
2023/08/03 10:26:36;;;;;;;4.70;3.50;;;;;;;28.13;69.17;100042.02;1776101;77;21192;-56
2023/08/03 10:30:03;;;;;;;5.22;3.35;;;;;;;28.30;69.02;100045.78;1786450;77;21253;-56
2023/08/03 10:33:08;;;;;;;4.47;3.65;;;;;;;28.51;68.82;100045.84;1793789;78;21211;-54
2023/08/03 10:36:15;;;;;;;6.90;3.58;;;;;;;28.59;68.29;100047.98;1787021;78;21191;-56
2023/08/03 10:39:22;;;;;;;4.85;3.40;;;;;;;28.62;68.06;100043.97;1791129;78;21763;-53
2023/08/03 10:42:38;;;;;;;4.87;3.87;;;;;;;28.77;67.94;100038.70;1777655;78;21184;-54
2023/08/03 10:45:44;;;;;;;4.30;3.62;;;;;;;28.81;67.36;100038.38;1771958;78;21255;-54
2023/08/03 10:48:50;;;;;;;6.65;3.70;;;;;;;28.71;66.93;100037.09;1741512;79;21259;-55
2023/08/03 10:52:03;;;;;;;5.20;3.70;;;;;;;28.62;66.63;100034.70;1784056;77;21294;-55
2023/08/03 10:55:29;;;;;;;4.45;3.22;;;;;;;28.62;66.63;100034.70;1798667;78;21313;-53
2023/08/03 10:58:36;;;;;;;5.45;3.72;;;;;;;28.70;66.47;100032.02;1764972;80;21227;-54
2023/08/03 11:04:13;;;;;;;5.33;3.83;;;;;;;28.87;66.06;100033.77;1767259;76;21189;-54
2023/08/03 11:07:20;;;;;;;4.65;3.42;;;;;;;28.99;65.99;100032.73;1782829;78;21358;-53
2023/08/03 11:12:54;;;;;;;3.67;3.33;;;;;;;29.28;65.57;100025.53;1750527;76;21194;-53
2023/08/03 11:16:00;;;;;;;7.15;3.65;;;;;;;29.39;65.33;100029.86;1778384;79;21194;-53
2023/08/03 11:21:35;;;;;;;4.95;4.35;;;;;;;29.76;64.99;100024.16;1737860;79;21198;-56
2023/08/03 11:24:42;;;;;;;4.30;3.90;;;;;;;29.83;64.57;100034.45;1761671;79;21569;-56
2023/08/03 11:30:19;;;;;;;4.58;4.05;;;;;;;29.55;63.54;100033.25;1790251;78;21850;-55
2023/08/03 11:38:22;;;;;;;4.15;3.72;;;;;;;29.63;62.93;100029.16;1721646;79;21229;-55
2023/08/03 11:44:00;;;;;;;3.80;3.42;;;;;;;29.70;62.40;100029.61;1786135;79;21211;-54
2023/08/03 11:49:38;;;;;;;3.80;3.45;;;;;;;29.81;61.92;100039.56;1825184;77;21191;-55
2023/08/03 11:55:14;;;;;;;4.40;3.40;;;;;;;29.82;61.30;100037.59;1800179;78;21219;-56
2023/08/03 12:00:51;;;;;;;4.22;3.60;;;;;;;29.76;60.50;100039.69;1767669;78;21242;-55
2023/08/03 12:06:26;;;;;;;4.75;4.00;;;;;;;29.61;59.88;100044.14;1784774;78;21262;-56
2023/08/03 12:12:10;;;;;;;4.55;3.60;;;;;;;29.41;59.32;100045.91;1716492;80;21268;-55
2023/08/03 12:15:17;;;;;;;4.33;3.87;;;;;;;29.40;59.55;100037.17;1772859;79;21366;-54
2023/08/03 12:18:23;;;;;;;5.28;3.90;;;;;;;29.43;58.94;100043.60;1761713;79;21198;-55
2023/08/03 12:21:29;;;;;;;3.58;3.12;;;;;;;29.45;58.79;100042.73;1770864;78;21172;-55
2023/08/03 12:24:36;;;;;;;5.15;4.05;;;;;;;29.54;58.64;100046.55;1785134;78;21219;-55
2023/08/03 12:27:41;;;;;;;6.75;4.58;;;;;;;29.55;58.27;100052.44;1794502;77;21299;-56
2023/08/03 12:30:46;;;;;;;5.42;4.92;;;;;;;29.52;57.97;100046.01;1790355;78;21300;-56
2023/08/03 12:33:53;;;;;;;4.35;3.92;;;;;;;29.54;57.78;100045.13;1742977;76;21231;-55
2023/08/03 12:39:28;;;;;;;6.40;3.65;;;;;;;29.65;57.30;100049.48;1762291;79;21578;-57
2023/08/03 12:42:35;;;;;;;6.42;3.50;;;;;;;29.65;57.01;100052.30;1729934;81;21249;-55
2023/08/03 12:48:11;;;;;;;4.45;3.47;;;;;;;29.57;56.31;100057.21;1746952;79;21260;-55
2023/08/03 12:53:49;;;;;;;3.67;3.20;;;;;;;29.48;56.13;100061.05;1774584;78;21239;-55
2023/08/03 12:59:25;;;;;;;3.77;2.90;;;;;;;29.46;55.77;100057.69;1783315;78;21207;-58
2023/08/03 13:07:30;;;;;;;4.37;3.58;;;;;;;29.38;55.32;100056.41;1805259;78;21808;-56
2023/08/03 13:13:06;;;;;;;3.47;3.17;;;;;;;29.23;54.84;100070.17;1766916;78;21262;-58
2023/08/03 13:16:12;;;;;;;6.08;3.42;;;;;;;29.12;54.54;100070.06;1762716;80;21200;-56
2023/08/03 13:21:47;;;;;;;4.62;3.60;;;;;;;29.04;54.26;100068.46;1751282;80;21771;-56
2023/08/03 13:29:56;;;;;;;6.12;3.58;;;;;;;29.10;54.11;100068.67;1768832;79;21373;-56
2023/08/03 13:35:32;;;;;;;3.65;3.17;;;;;;;29.02;53.89;100077.78;1775945;77;21771;-56
2023/08/03 13:38:29;;;;;;;6.62;4.05;;;;;;;29.00;53.71;100074.45;1789320;78;21548;-56
2023/08/03 13:41:35;;;;;;;7.22;4.67;;;;;;;28.98;53.65;100076.17;1780128;77;21223;-56
2023/08/03 13:44:42;;;;;;;4.33;3.30;;;;;;;28.99;53.55;100076.98;1750751;80;21239;-58
2023/08/03 13:50:16;;;;;;;4.17;3.77;;;;;;;28.98;53.21;100073.91;1761065;80;21700;-56
2023/08/03 13:58:21;;;;;;;4.72;4.25;;;;;;;28.93;53.10;100078.21;1786579;78;21192;-59
2023/08/03 14:03:57;;;;;;;5.25;4.45;;;;;;;28.87;52.60;100084.50;1793242;78;21238;-59
2023/08/03 14:09:33;;;;;;;7.20;4.67;;;;;;;28.76;52.58;100068.03;1778427;78;21225;-58
2023/08/03 14:15:10;;;;;;;7.58;4.60;;;;;;;28.83;52.38;100076.94;1793888;78;21710;-56
2023/08/03 14:23:16;;;;;;;6.72;5.22;;;;;;;28.86;52.00;100080.58;1731419;78;21270;-57
2023/08/03 14:28:52;;;;;;;9.78;5.20;;;;;;;28.83;51.78;100078.34;1781191;79;22167;-56
2023/08/03 14:34:30;;;;;;;5.95;4.40;;;;;;;28.78;51.54;100081.25;1769572;77;21195;-58
2023/08/03 14:40:08;;;;;;;6.33;4.90;;;;;;;28.94;51.36;100070.01;1763510;77;21533;-56
2023/08/03 14:45:42;;;;;;;9.65;4.30;;;;;;;28.93;51.08;100075.39;1785387;79;21230;-56
2023/08/03 14:48:52;;;;;;;7.05;4.20;;;;;;;28.88;51.05;100075.45;1798477;79;21746;-56
2023/08/03 14:51:38;;;;;;;4.83;3.80;;;;;;;28.87;50.98;100073.80;1784733;78;22189;-57
2023/08/03 14:54:46;;;;;;;5.95;3.55;;;;;;;28.91;50.84;100076.26;1790023;77;21693;-58
2023/08/03 14:57:51;;;;;;;5.92;4.25;;;;;;;28.86;50.69;100079.17;1783991;79;21764;-57
2023/08/03 15:03:26;;;;;;;4.25;3.83;;;;;;;28.72;50.53;100076.80;1781138;79;21256;-56
2023/08/03 15:09:04;;;;;;;6.17;3.95;;;;;;;28.74;50.52;100076.79;1763618;78;21366;-55
2023/08/03 15:14:39;;;;;;;4.90;3.87;;;;;;;28.70;50.36;100079.92;1775964;77;21232;-56
2023/08/03 15:20:17;;;;;;;5.42;3.83;;;;;;;28.67;50.37;100076.90;1747799;78;21263;-55
2023/08/03 15:23:24;;;;;;;5.12;3.85;;;;;;;28.66;50.39;100078.87;1771800;79;21624;-56
2023/08/03 15:26:10;;;;;;;4.67;3.62;;;;;;;28.64;50.37;100084.52;1782126;77;21337;-56
2023/08/03 15:29:17;;;;;;;7.47;3.58;;;;;;;28.74;50.34;100086.66;1788539;77;21383;-56
2023/08/03 15:34:54;;;;;;;4.28;3.42;;;;;;;29.83;49.61;100092.33;1727960;80;21285;-55
2023/08/03 15:40:32;;;;;;;4.72;3.70;;;;;;;29.68;49.05;100098.25;1771790;80;21188;-56
2023/08/03 15:46:13;;;;;;;7.70;4.22;;;;;;;29.13;49.22;100101.90;1783614;77;21241;-57
2023/08/03 15:54:19;;;;;;;6.97;4.20;;;;;;;28.84;49.47;100113.86;1775723;77;21811;-56
2023/08/03 15:59:56;;;;;;;5.45;4.12;;;;;;;28.92;49.31;100118.83;1772423;80;21381;-58
2023/08/03 16:05:32;;;;;;;5.33;4.28;;;;;;;28.85;49.36;100122.58;1791266;78;21291;-55
2023/08/03 16:11:07;;;;;;;5.12;4.62;;;;;;;28.71;49.73;100130.09;1774791;78;21363;-56
2023/08/03 16:16:46;;;;;;;8.30;4.97;;;;;;;28.55;49.97;100147.75;1746830;78;21263;-56
2023/08/03 16:22:20;;;;;;;7.83;4.50;;;;;;;28.29;50.10;100138.45;1725796;80;21244;-55
2023/08/03 16:27:58;;;;;;;37.75;14.80;;;;;;;28.14;50.08;100142.25;1760949;77;21760;-56
2023/08/03 16:33:31;;;;;;;40.28;10.85;;;;;;;27.85;50.38;100139.41;1820315;76;21287;-55
2023/08/03 16:39:08;;;;;;;21.10;9.78;;;;;;;27.56;50.63;100148.91;1798305;79;21977;-56
2023/08/03 16:44:43;;;;;;;9.23;7.83;;;;;;;27.31;50.94;100148.53;1793435;77;21236;-55
2023/08/03 16:50:18;;;;;;;9.68;7.62;;;;;;;27.08;51.27;100151.18;1799216;77;21195;-56
2023/08/03 16:55:53;;;;;;;31.37;12.53;;;;;;;26.86;51.61;100154.95;1781748;78;21271;-56
2023/08/03 17:01:28;;;;;;;24.52;13.40;;;;;;;26.63;51.93;100159.21;1790432;78;21493;-55
2023/08/03 17:07:04;;;;;;;17.62;11.80;;;;;;;26.40;52.18;100169.10;1791923;78;21223;-56
2023/08/03 17:10:10;;;;;;;15.45;10.70;;;;;;;26.29;52.34;100166.63;1797800;78;21347;-55
2023/08/03 17:15:45;;;;;;;19.07;14.47;;;;;;;26.02;52.70;100164.11;1788182;77;21175;-56
2023/08/03 17:21:21;;;;;;;1999.90;581.27;;;;;;;25.76;52.99;100163.83;1783826;78;21286;-55
2023/08/03 17:26:57;;;;;;;556.50;168.75;;;;;;;25.49;53.39;100174.46;1784235;78;21234;-54
2023/08/03 17:32:34;;;;;;;71.02;30.60;;;;;;;25.24;53.95;100174.94;1777774;78;21721;-56
2023/08/03 17:35:40;;;;;;;23.77;15.98;;;;;;;25.11;54.16;100167.90;1760077;77;21195;-56
2023/08/03 17:41:12;;;;;;;23.12;15.28;;;;;;;24.86;54.66;100185.45;1788490;77;21143;-55
2023/08/03 17:46:49;;;;;;;22.60;17.15;;;;;;;24.61;55.00;100202.68;1781116;79;21214;-55
2023/08/03 17:52:25;;;;;;;25.88;17.10;;;;;;;24.26;55.24;100215.87;1792260;78;21211;-57
2023/08/03 18:00:29;;;;;;;30.43;21.85;;;;;;;23.91;56.14;100215.58;1793249;78;21424;-56
2023/08/03 18:06:04;;;;;;;31.80;20.27;;;;;;;23.70;56.66;100216.50;1787991;77;21210;-57
2023/08/03 18:14:08;;;;;;;34.13;23.22;;;;;;;23.43;57.37;100215.67;1718360;79;21246;-55
2023/08/03 18:17:14;;;;;;;36.53;18.95;;;;;;;23.31;57.49;100213.56;1751832;78;21215;-56
2023/08/03 18:22:53;;;;;;;25.10;16.75;;;;;;;23.09;58.15;100216.91;1722597;79;21220;-56
2023/08/03 18:26:08;;;;;;;34.03;23.20;;;;;;;23.04;58.43;100217.70;1715064;78;21277;-57
2023/08/03 18:29:13;;;;;;;30.65;21.40;;;;;;;22.98;58.70;100224.88;1773574;79;21239;-56
2023/08/03 18:32:19;;;;;;;36.48;22.10;;;;;;;22.86;58.90;100232.55;1772942;79;21301;-56
2023/08/03 18:35:25;;;;;;;40.88;24.12;;;;;;;22.73;59.02;100233.78;1781763;78;21180;-55
2023/08/03 18:38:37;;;;;;;58.17;34.23;;;;;;;22.60;59.19;100242.52;1725291;80;21220;-56
2023/08/03 18:41:43;;;;;;;47.75;29.10;;;;;;;22.50;59.46;100240.94;1735635;79;21216;-56
2023/08/03 18:44:49;;;;;;;46.60;27.87;;;;;;;22.39;59.70;100243.28;1757964;78;21780;-55
2023/08/03 18:47:54;;;;;;;43.23;24.60;;;;;;;22.29;59.88;100243.15;1750053;77;21758;-55
2023/08/03 18:51:13;;;;;;;39.00;24.47;;;;;;;22.19;60.13;100243.84;1785457;78;21373;-56
2023/08/03 18:56:51;;;;;;;41.35;24.98;;;;;;;22.11;60.87;100246.20;1784155;78;21219;-55
2023/08/03 19:04:53;;;;;;;35.10;23.35;;;;;;;21.92;61.33;100250.33;1751488;78;21192;-55
2023/08/03 19:08:00;;;;;;;36.88;23.05;;;;;;;21.89;61.50;100252.23;1715221;80;21197;-56
2023/08/03 19:13:38;;;;;;;42.40;26.23;;;;;;;21.77;61.88;100264.02;1779459;78;21219;-56
2023/08/03 19:21:43;;;;;;;45.30;27.17;;;;;;;21.66;62.58;100270.47;1766063;80;21223;-56
2023/08/03 19:27:18;;;;;;;51.25;29.98;;;;;;;21.63;63.04;100277.37;1722287;81;21275;-55
2023/08/03 19:32:54;;;;;;;37.80;24.35;;;;;;;21.53;63.25;100272.98;1714384;81;21639;-55
2023/08/03 19:38:32;;;;;;;28.42;17.60;;;;;;;21.44;63.59;100277.28;1775713;78;21234;-56
2023/08/03 19:44:07;;;;;;;28.32;17.15;;;;;;;21.35;63.92;100280.17;1779432;77;21232;-56
2023/08/03 19:47:13;;;;;;;23.27;15.98;;;;;;;21.32;64.09;100279.81;1765605;76;21891;-56
2023/08/03 19:52:49;;;;;;;24.98;16.77;;;;;;;21.22;64.41;100288.81;1792538;78;21351;-56
2023/08/03 20:00:56;;;;;;;22.25;16.27;;;;;;;21.09;64.72;100298.83;1742934;80;21211;-55
2023/08/03 20:06:32;;;;;;;25.23;17.10;;;;;;;20.96;64.91;100296.84;1802279;77;21342;-56
2023/08/03 20:12:07;;;;;;;24.15;16.90;;;;;;;20.84;65.20;100301.03;1766310;78;21235;-56
2023/08/03 20:17:42;;;;;;;24.23;15.88;;;;;;;20.78;65.61;100309.83;1775582;78;21278;-56
2023/08/03 20:23:18;;;;;;;21.60;16.02;;;;;;;20.76;66.07;100312.53;1785196;78;22037;-57
2023/08/03 20:28:54;;;;;;;20.77;14.38;;;;;;;20.70;66.38;100310.73;1791823;78;21350;-57
2023/08/03 20:36:59;;;;;;;20.30;13.20;;;;;;;20.62;66.73;100320.84;1784277;79;21227;-56
2023/08/03 20:42:34;;;;;;;15.98;12.35;;;;;;;20.58;67.04;100323.81;1738942;78;21192;-55
2023/08/03 20:45:49;;;;;;;16.93;12.47;;;;;;;20.57;67.15;100323.49;1728019;81;21280;-56
2023/08/03 20:48:35;;;;;;;16.82;13.00;;;;;;;20.54;67.25;100326.23;1768797;79;21195;-56
2023/08/03 20:51:41;;;;;;;17.62;12.95;;;;;;;20.51;67.37;100329.50;1728120;80;21299;-55
2023/08/03 20:54:47;;;;;;;18.23;12.85;;;;;;;20.48;67.49;100330.52;1775912;78;21327;-55
2023/08/03 21:00:22;;;;;;;17.57;12.68;;;;;;;20.38;67.69;100333.89;1763455;79;21875;-55
2023/08/03 21:08:27;;;;;;;20.32;13.20;;;;;;;20.31;68.12;100326.77;1727920;79;21280;-56
2023/08/03 21:14:02;;;;;;;19.05;13.18;;;;;;;20.25;68.34;100325.77;1785393;78;21420;-56
2023/08/03 21:19:39;;;;;;;23.40;17.85;;;;;;;20.19;68.56;100328.66;1794109;77;21213;-55
2023/08/03 21:25:16;;;;;;;19.98;13.43;;;;;;;20.14;68.82;100328.00;1801151;78;22280;-55
2023/08/03 21:33:20;;;;;;;17.80;12.47;;;;;;;20.05;69.13;100332.72;1781406;78;21356;-55
2023/08/03 21:38:56;;;;;;;17.85;11.57;;;;;;;19.99;69.30;100328.12;1777671;79;21284;-55
2023/08/03 21:44:30;;;;;;;17.52;11.90;;;;;;;19.95;69.60;100329.66;1787509;77;21451;-55
2023/08/03 21:47:38;;;;;;;17.02;11.78;;;;;;;19.92;69.69;100325.44;1721161;81;21214;-56
2023/08/03 21:53:15;;;;;;;21.85;13.22;;;;;;;19.83;69.74;100319.07;1793006;78;21320;-56
2023/08/03 21:56:24;;;;;;;16.65;12.00;;;;;;;19.80;69.88;100318.16;1784225;78;21851;-56
2023/08/03 22:04:29;;;;;;;16.70;12.30;;;;;;;19.72;70.24;100329.61;1751719;80;21868;-55
2023/08/03 22:10:04;;;;;;;18.60;12.40;;;;;;;19.66;70.39;100333.33;1726430;80;21370;-55